Time;durP1;ratioP1;P1;durP2;ratioP2;P2;SDS_P1;SDS_P2;PMS_P1;PMS_P2;Temp;Humidity;BMP_temperature;BMP_pressure;BME280_temperature;BME280_humidity;BME280_pressure;Samples;Min_cycle;Max_cycle;Signal;HPM_P1;HPM_P2
2023/06/12 00:01:24;;;;;;;;;;;21.30;99.90;;;;;;5055016;28;19925;-72
2023/06/12 00:03:55;;;;;;;;;;;21.30;99.90;;;;;;5035722;28;19924;-72
2023/06/12 00:06:22;;;;;;;;;;;21.20;99.90;;;;;;5038304;28;19971;-72
2023/06/12 00:08:49;;;;;;;;;;;21.10;99.90;;;;;;5044968;28;20293;-72
2023/06/12 00:11:16;;;;;;;;;;;21.10;99.90;;;;;;5042443;28;20449;-72
2023/06/12 00:13:44;;;;;;;;;;;21.00;99.90;;;;;;5041289;28;19925;-72
2023/06/12 00:16:11;;;;;;;;;;;21.00;99.90;;;;;;5039286;28;19933;-72
2023/06/12 00:18:39;;;;;;;;;;;21.00;99.90;;;;;;5045300;28;19929;-72
2023/06/12 00:21:09;;;;;;;;;;;20.80;99.90;;;;;;5044425;28;20024;-72
2023/06/12 00:23:36;;;;;;;;;;;20.70;99.90;;;;;;5048692;28;19932;-72
2023/06/12 00:26:03;;;;;;;;;;;20.60;99.90;;;;;;5037846;28;19975;-72
2023/06/12 00:28:30;;;;;;;;;;;20.50;99.90;;;;;;5039148;28;19929;-71
2023/06/12 00:30:57;;;;;;;;;;;20.40;99.90;;;;;;5044114;28;19971;-72
2023/06/12 00:33:24;;;;;;;;;;;20.30;99.90;;;;;;5044576;28;19940;-72
2023/06/12 00:35:50;;;;;;;;;;;20.30;99.90;;;;;;5042339;28;19948;-72
2023/06/12 00:38:19;;;;;;;;;;;20.30;99.90;;;;;;5042100;28;19929;-72
2023/06/12 00:40:46;;;;;;;;;;;20.20;99.90;;;;;;5048042;28;19937;-72
2023/06/12 00:43:13;;;;;;;;;;;20.20;99.90;;;;;;5035744;28;19932;-71
2023/06/12 00:45:40;;;;;;;;;;;20.20;99.90;;;;;;5040847;28;20426;-72
2023/06/12 00:48:07;;;;;;;;;;;20.10;99.90;;;;;;5062255;28;19925;-72
2023/06/12 00:50:34;;;;;;;;;;;20.10;99.90;;;;;;5059398;28;19925;-71
2023/06/12 00:53:01;;;;;;;;;;;20.10;99.90;;;;;;5064110;28;19924;-72
2023/06/12 00:55:31;;;;;;;;;;;20.10;99.90;;;;;;5042296;28;19932;-71
2023/06/12 00:57:59;;;;;;;;;;;20.00;99.90;;;;;;5028880;28;19948;-72
2023/06/12 01:00:27;;;;;;;;;;;20.10;99.90;;;;;;5035455;28;19929;-71
2023/06/12 01:02:55;;;;;;;;;;;20.00;99.90;;;;;;5041887;28;19959;-72
2023/06/12 01:05:32;;;;;;;;;;;19.90;99.90;;;;;;5039859;28;19925;-71
2023/06/12 01:08:10;;;;;;;;;;;19.90;99.90;;;;;;5034578;28;19925;-72
2023/06/12 01:10:41;;;;;;;;;;;19.80;99.90;;;;;;5036666;28;19932;-72
2023/06/12 01:13:10;;;;;;;;;;;19.80;99.90;;;;;;5041979;28;19932;-71
2023/06/12 01:15:37;;;;;;;;;;;19.80;99.90;;;;;;5051806;28;19932;-72
2023/06/12 01:18:06;;;;;;;;;;;19.70;99.90;;;;;;5035291;28;19925;-72
2023/06/12 01:20:33;;;;;;;;;;;19.60;99.90;;;;;;5036576;28;19928;-72
2023/06/12 01:23:05;;;;;;;;;;;19.60;99.90;;;;;;5044949;28;19925;-71
2023/06/12 01:25:54;;;;;;;;;;;19.50;99.90;;;;;;5059936;28;19929;-71
2023/06/12 01:28:29;;;;;;;;;;;19.40;99.90;;;;;;5041244;28;19941;-71
2023/06/12 01:31:06;;;;;;;;;;;19.40;99.90;;;;;;5060613;28;19932;-72
2023/06/12 01:33:37;;;;;;;;;;;19.30;99.90;;;;;;5039708;28;20023;-72
2023/06/12 01:36:08;;;;;;;;;;;19.20;99.90;;;;;;5043746;28;19931;-71
2023/06/12 01:38:36;;;;;;;;;;;19.10;99.90;;;;;;5036097;28;20343;-71
2023/06/12 01:41:06;;;;;;;;;;;19.10;99.90;;;;;;5036634;28;19928;-71
2023/06/12 01:43:32;;;;;;;;;;;19.10;99.90;;;;;;5042570;28;19936;-71
2023/06/12 01:45:59;;;;;;;;;;;19.00;99.90;;;;;;5061137;28;20334;-72
2023/06/12 01:48:26;;;;;;;;;;;19.00;99.90;;;;;;5042469;28;19974;-72
2023/06/12 01:50:57;;;;;;;;;;;18.90;99.90;;;;;;5045774;28;20326;-72
2023/06/12 01:53:25;;;;;;;;;;;18.90;99.90;;;;;;5041820;28;19932;-71
2023/06/12 01:55:53;;;;;;;;;;;18.90;99.90;;;;;;5032305;28;19932;-72
2023/06/12 01:58:23;;;;;;;;;;;18.90;99.90;;;;;;5039921;28;20311;-72
2023/06/12 02:01:14;;;;;;;;;;;18.90;99.90;;;;;;5032156;28;19925;-71
2023/06/12 02:03:45;;;;;;;;;;;18.80;99.90;;;;;;5047434;28;19968;-72
2023/06/12 02:06:14;;;;;;;;;;;18.80;99.90;;;;;;5028634;28;19979;-71
2023/06/12 02:08:41;;;;;;;;;;;18.80;99.90;;;;;;5043302;28;19947;-71
2023/06/12 02:11:11;;;;;;;;;;;18.70;99.90;;;;;;5040298;28;19931;-72
2023/06/12 02:13:37;;;;;;;;;;;18.60;99.90;;;;;;5035500;28;19925;-71
2023/06/12 02:16:05;;;;;;;;;;;18.60;99.90;;;;;;5033772;28;19960;-71
2023/06/12 02:18:32;;;;;;;;;;;18.60;99.90;;;;;;5041693;28;19925;-71
2023/06/12 02:20:59;;;;;;;;;;;18.50;99.90;;;;;;5043619;28;19925;-72
2023/06/12 02:23:28;;;;;;;;;;;18.50;99.90;;;;;;5057827;28;20036;-71
2023/06/12 02:25:55;;;;;;;;;;;18.40;99.90;;;;;;5044749;28;20015;-71
2023/06/12 02:28:22;;;;;;;;;;;18.30;99.90;;;;;;5044622;28;20325;-71
2023/06/12 02:30:49;;;;;;;;;;;18.20;99.90;;;;;;5042834;28;19956;-72
2023/06/12 02:33:17;;;;;;;;;;;18.10;99.90;;;;;;5044737;28;19929;-71
2023/06/12 02:35:44;;;;;;;;;;;18.10;99.90;;;;;;5044005;28;19925;-71
2023/06/12 02:38:12;;;;;;;;;;;18.00;99.90;;;;;;5038412;28;19925;-71
2023/06/12 02:40:41;;;;;;;;;;;17.90;99.90;;;;;;5037408;28;20285;-71
2023/06/12 02:43:08;;;;;;;;;;;17.90;99.90;;;;;;5043024;28;19932;-71
2023/06/12 02:45:35;;;;;;;;;;;17.70;99.90;;;;;;5032231;28;19925;-71
2023/06/12 02:48:03;;;;;;;;;;;17.70;99.90;;;;;;5035465;28;19964;-72
2023/06/12 02:50:33;;;;;;;;;;;17.70;99.90;;;;;;5034920;28;19926;-72
2023/06/12 02:53:03;;;;;;;;;;;17.70;99.90;;;;;;5043119;28;19925;-71
2023/06/12 02:55:31;;;;;;;;;;;17.60;99.90;;;;;;5039727;28;19940;-71
2023/06/12 02:58:00;;;;;;;;;;;17.60;99.90;;;;;;5043198;28;19952;-72
2023/06/12 03:00:26;;;;;;;;;;;17.50;99.90;;;;;;5043396;28;19928;-71
2023/06/12 03:02:55;;;;;;;;;;;17.50;99.90;;;;;;5053142;28;19929;-71
2023/06/12 03:05:25;;;;;;;;;;;17.50;99.90;;;;;;5040791;28;19956;-71
2023/06/12 03:07:54;;;;;;;;;;;17.40;99.90;;;;;;5033106;28;19929;-71
2023/06/12 03:10:21;;;;;;;;;;;17.40;99.90;;;;;;5037735;28;19925;-72
2023/06/12 03:12:48;;;;;;;;;;;17.40;99.90;;;;;;5039804;28;19994;-71
2023/06/12 03:15:18;;;;;;;;;;;17.40;99.90;;;;;;5050584;28;20360;-71
2023/06/12 03:17:45;;;;;;;;;;;17.30;99.90;;;;;;5031855;28;19932;-71
2023/06/12 03:20:14;;;;;;;;;;;17.30;99.90;;;;;;5051838;28;19926;-71
2023/06/12 03:22:40;;;;;;;;;;;17.30;99.90;;;;;;5044429;28;20388;-71
2023/06/12 03:25:08;;;;;;;;;;;17.20;99.90;;;;;;5030539;28;19929;-71
2023/06/12 03:27:36;;;;;;;;;;;17.20;99.90;;;;;;5038591;28;19929;-71
2023/06/12 03:30:03;;;;;;;;;;;17.10;99.90;;;;;;5055164;28;19929;-71
2023/06/12 03:32:32;;;;;;;;;;;17.10;99.90;;;;;;5063738;28;20275;-71
2023/06/12 03:35:02;;;;;;;;;;;17.00;99.90;;;;;;5034834;28;20025;-71
2023/06/12 03:37:28;;;;;;;;;;;17.00;99.90;;;;;;5062625;28;20024;-71
2023/06/12 03:39:57;;;;;;;;;;;16.90;99.90;;;;;;5038537;28;20281;-71
2023/06/12 03:42:24;;;;;;;;;;;16.90;99.90;;;;;;5064803;28;19932;-71
2023/06/12 03:44:54;;;;;;;;;;;16.90;99.90;;;;;;5043867;28;20396;-71
2023/06/12 03:47:22;;;;;;;;;;;16.90;99.90;;;;;;5036524;28;19925;-76
2023/06/12 03:49:50;;;;;;;;;;;16.90;99.90;;;;;;5047010;28;19925;-71
2023/06/12 03:52:18;;;;;;;;;;;16.90;99.90;;;;;;5051614;28;19929;-71
2023/06/12 03:54:46;;;;;;;;;;;16.90;99.90;;;;;;5048135;28;19925;-72
2023/06/12 03:57:13;;;;;;;;;;;16.80;99.90;;;;;;5030056;28;19925;-71
2023/06/12 03:59:40;;;;;;;;;;;16.80;99.90;;;;;;5038170;28;20308;-71
2023/06/12 04:02:07;;;;;;;;;;;16.70;99.90;;;;;;5044658;28;19924;-71
2023/06/12 04:04:33;;;;;;;;;;;16.70;99.90;;;;;;5053622;28;19948;-71
2023/06/12 04:07:02;;;;;;;;;;;16.60;99.90;;;;;;5038901;28;19926;-71
2023/06/12 04:09:29;;;;;;;;;;;16.60;99.90;;;;;;5052638;28;19929;-71
2023/06/12 04:11:56;;;;;;;;;;;16.60;99.90;;;;;;5045309;28;19931;-71
2023/06/12 04:14:23;;;;;;;;;;;16.60;99.90;;;;;;5050426;28;19931;-69
2023/06/12 04:16:50;;;;;;;;;;;16.60;99.90;;;;;;5036591;28;19978;-71
2023/06/12 04:19:17;;;;;;;;;;;16.70;99.90;;;;;;5037813;28;20340;-71
2023/06/12 04:21:45;;;;;;;;;;;16.80;99.90;;;;;;5037218;28;20033;-71
2023/06/12 04:24:15;;;;;;;;;;;16.90;99.90;;;;;;5048832;28;20009;-71
2023/06/12 04:26:43;;;;;;;;;;;17.00;99.90;;;;;;5049976;28;20401;-71
2023/06/12 04:29:11;;;;;;;;;;;17.10;99.90;;;;;;5044511;28;19925;-72
2023/06/12 04:31:39;;;;;;;;;;;17.10;99.90;;;;;;5037134;28;19929;-71
2023/06/12 04:34:07;;;;;;;;;;;17.20;99.90;;;;;;5040770;28;19965;-69
2023/06/12 04:36:37;;;;;;;;;;;17.30;99.90;;;;;;5034904;28;19924;-71
2023/06/12 04:39:05;;;;;;;;;;;17.40;99.90;;;;;;5041110;28;19925;-71
2023/06/12 04:41:36;;;;;;;;;;;17.40;99.90;;;;;;5052150;28;19933;-70
2023/06/12 04:44:03;;;;;;;;;;;17.40;99.90;;;;;;5040208;28;19964;-70
2023/06/12 04:46:33;;;;;;;;;;;17.50;99.90;;;;;;5043432;28;19937;-70
2023/06/12 04:49:02;;;;;;;;;;;17.40;99.90;;;;;;5046094;28;19925;-70
2023/06/12 04:51:29;;;;;;;;;;;17.50;99.90;;;;;;5037369;28;19959;-70
2023/06/12 04:53:57;;;;;;;;;;;17.50;99.90;;;;;;5033147;28;19932;-70
2023/06/12 04:56:24;;;;;;;;;;;17.70;99.90;;;;;;5039067;28;19925;-71
2023/06/12 04:58:53;;;;;;;;;;;17.80;99.90;;;;;;5048448;28;19925;-71
2023/06/12 05:01:21;;;;;;;;;;;17.90;99.90;;;;;;5040048;28;19925;-71
2023/06/12 05:03:50;;;;;;;;;;;18.10;99.90;;;;;;5030609;28;19929;-71
2023/06/12 05:06:17;;;;;;;;;;;18.30;99.90;;;;;;5034251;28;19925;-71
2023/06/12 05:08:45;;;;;;;;;;;18.40;99.90;;;;;;5038742;28;19940;-71
2023/06/12 05:11:12;;;;;;;;;;;18.50;99.90;;;;;;5035913;28;19925;-71
2023/06/12 05:13:39;;;;;;;;;;;18.50;99.90;;;;;;5044085;28;19929;-71
2023/06/12 05:16:09;;;;;;;;;;;18.50;99.90;;;;;;5034118;28;19929;-71
2023/06/12 05:18:36;;;;;;;;;;;18.60;99.90;;;;;;5053747;28;20367;-71
2023/06/12 05:21:04;;;;;;;;;;;18.60;99.90;;;;;;5053667;28;19932;-71
2023/06/12 05:23:30;;;;;;;;;;;18.60;99.90;;;;;;5036414;28;20344;-71
2023/06/12 05:25:57;;;;;;;;;;;18.70;99.90;;;;;;5043829;28;20435;-71
2023/06/12 05:28:26;;;;;;;;;;;18.90;99.90;;;;;;5036875;28;19968;-71
2023/06/12 05:30:53;;;;;;;;;;;19.00;99.90;;;;;;5044093;28;19929;-70
2023/06/12 05:33:21;;;;;;;;;;;19.10;99.90;;;;;;5040904;28;19932;-71
2023/06/12 05:35:49;;;;;;;;;;;19.20;99.90;;;;;;5033693;28;19932;-71
2023/06/12 05:38:16;;;;;;;;;;;19.30;99.90;;;;;;5057237;28;19925;-71
2023/06/12 05:40:43;;;;;;;;;;;19.40;99.90;;;;;;5039920;28;19925;-71
2023/06/12 05:43:10;;;;;;;;;;;19.50;99.90;;;;;;5032565;28;19971;-71
2023/06/12 05:45:38;;;;;;;;;;;19.60;99.90;;;;;;5031987;28;19925;-71
2023/06/12 05:48:05;;;;;;;;;;;19.70;99.90;;;;;;5024719;28;19925;-72
2023/06/12 05:50:33;;;;;;;;;;;19.80;99.90;;;;;;5033079;28;20482;-71
2023/06/12 05:53:00;;;;;;;;;;;19.90;99.90;;;;;;5029437;28;20027;-71
2023/06/12 05:55:27;;;;;;;;;;;19.90;99.90;;;;;;5029318;28;19926;-71
2023/06/12 05:57:54;;;;;;;;;;;19.90;99.90;;;;;;5045790;28;19925;-72
2023/06/12 06:00:23;;;;;;;;;;;20.00;99.90;;;;;;5038643;28;19925;-71
2023/06/12 06:02:54;;;;;;;;;;;20.10;99.90;;;;;;5047229;28;19925;-72
2023/06/12 06:05:33;;;;;;;;;;;20.20;99.90;;;;;;5030595;28;20396;-71
2023/06/12 06:08:08;;;;;;;;;;;20.30;99.90;;;;;;5043273;28;20404;-71
2023/06/12 06:10:38;;;;;;;;;;;20.30;99.90;;;;;;5039144;28;20016;-71
2023/06/12 06:13:05;;;;;;;;;;;20.40;99.90;;;;;;5030669;28;19932;-72
2023/06/12 06:15:32;;;;;;;;;;;20.50;99.90;;;;;;5046642;28;19940;-72
2023/06/12 06:17:59;;;;;;;;;;;20.50;99.90;;;;;;5031600;28;19933;-71
2023/06/12 06:20:26;;;;;;;;;;;20.60;99.90;;;;;;5046673;28;19925;-72
2023/06/12 06:22:55;;;;;;;;;;;20.70;99.90;;;;;;5030015;28;19940;-72
2023/06/12 06:25:22;;;;;;;;;;;20.80;99.90;;;;;;5030549;28;19929;-71
2023/06/12 06:27:49;;;;;;;;;;;20.80;99.90;;;;;;5030006;28;19929;-71
2023/06/12 06:30:17;;;;;;;;;;;20.90;99.90;;;;;;5047659;28;19987;-72
2023/06/12 06:32:46;;;;;;;;;;;20.90;99.90;;;;;;5035388;28;19925;-71
2023/06/12 06:35:13;;;;;;;;;;;21.00;99.90;;;;;;5046560;28;20396;-71
2023/06/12 06:37:40;;;;;;;;;;;21.10;99.90;;;;;;5032999;28;19924;-71
2023/06/12 06:40:10;;;;;;;;;;;21.20;99.90;;;;;;5038996;28;19929;-72
2023/06/12 06:42:36;;;;;;;;;;;21.30;99.90;;;;;;5030064;28;19968;-71
2023/06/12 06:45:07;;;;;;;;;;;21.40;99.90;;;;;;5028685;28;19939;-71
2023/06/12 06:47:35;;;;;;;;;;;21.50;99.90;;;;;;5031193;28;19933;-72
2023/06/12 06:50:03;;;;;;;;;;;21.60;99.90;;;;;;5029865;28;19953;-72
2023/06/12 06:52:30;;;;;;;;;;;21.70;99.90;;;;;;5029980;28;20304;-72
2023/06/12 06:54:58;;;;;;;;;;;21.80;99.90;;;;;;5037246;28;19960;-72
2023/06/12 06:57:27;;;;;;;;;;;21.80;99.90;;;;;;5029845;28;20351;-72
2023/06/12 06:59:55;;;;;;;;;;;21.90;99.90;;;;;;5029740;28;19933;-72
2023/06/12 07:02:23;;;;;;;;;;;21.90;99.90;;;;;;5029953;28;19937;-72
2023/06/12 07:04:50;;;;;;;;;;;22.00;99.90;;;;;;5033923;28;19956;-72
2023/06/12 07:07:18;;;;;;;;;;;22.10;99.90;;;;;;5029515;28;19925;-72
2023/06/12 07:09:46;;;;;;;;;;;22.20;99.90;;;;;;5029958;28;19929;-72
2023/06/12 07:12:13;;;;;;;;;;;22.10;99.90;;;;;;5032159;28;19925;-72
2023/06/12 07:14:42;;;;;;;;;;;22.10;99.90;;;;;;5029650;28;19980;-71
2023/06/12 07:17:10;;;;;;;;;;;22.20;99.90;;;;;;5029784;28;19925;-72
2023/06/12 07:19:36;;;;;;;;;;;22.30;99.90;;;;;;5051799;28;19972;-72
2023/06/12 07:22:04;;;;;;;;;;;22.30;99.90;;;;;;5041859;28;19960;-72
2023/06/12 07:24:32;;;;;;;;;;;22.40;99.90;;;;;;5036184;28;19933;-72
2023/06/12 07:26:59;;;;;;;;;;;22.50;99.90;;;;;;5046721;28;19932;-72
2023/06/12 07:29:27;;;;;;;;;;;22.50;99.90;;;;;;5036594;28;20467;-72
2023/06/12 07:31:55;;;;;;;;;;;22.60;99.90;;;;;;5033596;28;19932;-72
2023/06/12 07:34:22;;;;;;;;;;;22.70;99.90;;;;;;5033136;28;20032;-72
2023/06/12 07:36:49;;;;;;;;;;;22.80;99.90;;;;;;5033628;28;20384;-72
2023/06/12 07:39:16;;;;;;;;;;;22.80;99.90;;;;;;5033441;28;19925;-72
2023/06/12 07:41:43;;;;;;;;;;;22.90;99.90;;;;;;5033567;28;19925;-72
2023/06/12 07:44:11;;;;;;;;;;;22.90;99.90;;;;;;5032859;28;19933;-72
2023/06/12 07:46:39;;;;;;;;;;;23.00;99.90;;;;;;5033072;28;19976;-72
2023/06/12 07:49:07;;;;;;;;;;;23.00;99.90;;;;;;5033044;28;19932;-72
2023/06/12 07:51:34;;;;;;;;;;;23.00;99.90;;;;;;5033325;28;19975;-72
2023/06/12 07:54:02;;;;;;;;;;;23.00;99.90;;;;;;5032738;28;19960;-72
2023/06/12 07:56:32;;;;;;;;;;;23.00;99.90;;;;;;5033294;28;19940;-72
2023/06/12 07:59:05;;;;;;;;;;;23.10;99.90;;;;;;5039675;28;19929;-72
2023/06/12 08:01:34;;;;;;;;;;;23.20;99.90;;;;;;5033118;28;19933;-72
2023/06/12 08:04:03;;;;;;;;;;;23.30;99.90;;;;;;5033130;28;19960;-72
2023/06/12 08:06:33;;;;;;;;;;;23.30;99.90;;;;;;5032619;28;20627;-72
2023/06/12 08:09:00;;;;;;;;;;;23.40;99.90;;;;;;5038041;28;20305;-72
2023/06/12 08:11:27;;;;;;;;;;;23.50;99.90;;;;;;5040779;28;19925;-72
2023/06/12 08:13:54;;;;;;;;;;;23.60;99.90;;;;;;5032892;28;20296;-72
2023/06/12 08:16:23;;;;;;;;;;;23.70;99.90;;;;;;5041716;28;20023;-72
2023/06/12 08:18:51;;;;;;;;;;;23.70;99.90;;;;;;5032527;28;19929;-72
2023/06/12 08:21:20;;;;;;;;;;;23.80;99.90;;;;;;5034053;28;19925;-71
2023/06/12 08:23:48;;;;;;;;;;;23.80;99.90;;;;;;5032686;28;19925;-70
2023/06/12 08:26:16;;;;;;;;;;;23.80;99.90;;;;;;5037498;28;19929;-71
2023/06/12 08:28:42;;;;;;;;;;;23.90;99.90;;;;;;5040230;28;19929;-71
2023/06/12 08:31:13;;;;;;;;;;;24.10;99.90;;;;;;5032731;28;19929;-71
2023/06/12 08:33:40;;;;;;;;;;;24.20;99.90;;;;;;5035120;28;19925;-71
2023/06/12 08:36:07;;;;;;;;;;;24.20;99.90;;;;;;5033529;28;19925;-71
2023/06/12 08:38:34;;;;;;;;;;;24.20;99.90;;;;;;5032253;28;19936;-71
2023/06/12 08:41:03;;;;;;;;;;;24.20;99.90;;;;;;5032728;28;19925;-71
2023/06/12 08:43:30;;;;;;;;;;;24.30;99.90;;;;;;5037412;28;19929;-71
2023/06/12 08:45:57;;;;;;;;;;;24.40;99.90;;;;;;5032559;28;20384;-71
2023/06/12 08:48:26;;;;;;;;;;;24.50;99.90;;;;;;5031094;28;19925;-71
2023/06/12 08:50:53;;;;;;;;;;;24.60;99.90;;;;;;5032888;28;19933;-71
2023/06/12 08:53:20;;;;;;;;;;;24.70;99.90;;;;;;5031793;28;19926;-71
2023/06/12 08:55:47;;;;;;;;;;;24.90;99.90;;;;;;5032118;28;20052;-71
2023/06/12 08:58:15;;;;;;;;;;;25.00;99.90;;;;;;5028942;28;19933;-71
2023/06/12 09:00:42;;;;;;;;;;;25.20;99.90;;;;;;5033046;28;19949;-71
2023/06/12 09:03:10;;;;;;;;;;;25.40;99.90;;;;;;5031565;28;19930;-71
2023/06/12 09:05:39;;;;;;;;;;;25.60;99.90;;;;;;5023395;28;20408;-70
2023/06/12 09:08:06;;;;;;;;;;;25.70;99.90;;;;;;5036618;28;19924;-71
2023/06/12 09:10:33;;;;;;;;;;;25.70;99.90;;;;;;5035235;28;19929;-72
2023/06/12 09:13:01;;;;;;;;;;;25.70;99.90;;;;;;5042518;28;20067;-72
2023/06/12 09:15:29;;;;;;;;;;;25.90;99.90;;;;;;5041217;28;19925;-72
2023/06/12 09:17:56;;;;;;;;;;;25.90;99.90;;;;;;5027972;28;19925;-72
2023/06/12 09:20:24;;;;;;;;;;;26.10;99.90;;;;;;5034307;28;19929;-72
2023/06/12 09:22:52;;;;;;;;;;;26.10;99.90;;;;;;5030917;28;19929;-72
2023/06/12 09:25:19;;;;;;;;;;;26.10;99.90;;;;;;5030895;28;19929;-72
2023/06/12 09:27:47;;;;;;;;;;;26.20;99.90;;;;;;5031271;28;20403;-72
2023/06/12 09:30:13;;;;;;;;;;;26.20;99.90;;;;;;5030658;28;19929;-72
2023/06/12 09:32:44;;;;;;;;;;;26.10;99.90;;;;;;5031090;28;19956;-72
2023/06/12 09:35:11;;;;;;;;;;;26.10;99.90;;;;;;5041058;28;19924;-71
2023/06/12 09:37:38;;;;;;;;;;;26.20;99.90;;;;;;5023248;28;19929;-72
2023/06/12 09:40:10;;;;;;;;;;;26.20;99.90;;;;;;5030996;28;20020;-71
2023/06/12 09:42:37;;;;;;;;;;;26.30;99.90;;;;;;5025364;28;19924;-71
2023/06/12 09:45:11;;;;;;;;;;;26.50;99.90;;;;;;5032928;28;19936;-71
2023/06/12 09:47:40;;;;;;;;;;;26.60;99.90;;;;;;5028635;28;19925;-71
2023/06/12 09:50:09;;;;;;;;;;;26.70;99.90;;;;;;5038149;28;20358;-71
2023/06/12 09:52:36;;;;;;;;;;;26.90;99.90;;;;;;5045858;28;19935;-71
2023/06/12 09:55:03;;;;;;;;;;;27.10;99.90;;;;;;5030234;28;19925;-71
2023/06/12 09:57:31;;;;;;;;;;;27.20;99.90;;;;;;5030517;28;19925;-72
2023/06/12 10:00:01;;;;;;;;;;;27.30;99.90;;;;;;5029897;28;19925;-72
2023/06/12 10:02:27;;;;;;;;;;;27.30;99.90;;;;;;5029991;28;19925;-71
2023/06/12 10:04:59;;;;;;;;;;;27.40;99.90;;;;;;5030357;28;19925;-72
2023/06/12 10:07:29;;;;;;;;;;;27.40;99.90;;;;;;5030033;28;20020;-71
2023/06/12 10:09:56;;;;;;;;;;;27.50;99.90;;;;;;5032520;28;20020;-71
2023/06/12 10:12:25;;;;;;;;;;;27.70;99.90;;;;;;5031499;28;19925;-72
2023/06/12 10:14:52;;;;;;;;;;;27.80;99.90;;;;;;5037668;28;20361;-71
2023/06/12 10:17:21;;;;;;;;;;;27.80;99.90;;;;;;5030615;28;19925;-71
2023/06/12 10:19:49;;;;;;;;;;;28.00;99.90;;;;;;5029030;28;20005;-72
2023/06/12 10:22:16;;;;;;;;;;;28.20;99.90;;;;;;5025951;28;19980;-73
2023/06/12 10:24:45;;;;;;;;;;;28.40;99.90;;;;;;5029007;28;20332;-72
2023/06/12 10:27:12;;;;;;;;;;;28.60;99.90;;;;;;5021418;28;19929;-73
2023/06/12 10:29:39;;;;;;;;;;;28.80;99.90;;;;;;5024789;28;19933;-73
2023/06/12 10:32:07;;;;;;;;;;;28.80;99.90;;;;;;5029392;28;19929;-72
2023/06/12 10:34:34;;;;;;;;;;;28.70;99.90;;;;;;5025952;28;19929;-72
2023/06/12 10:37:16;;;;;;;;;;;28.70;99.90;;;;;;5029953;28;19932;-73
2023/06/12 10:39:46;;;;;;;;;;;28.70;99.90;;;;;;5029305;28;20438;-73
2023/06/12 10:42:15;;;;;;;;;;;28.80;99.90;;;;;;5037885;28;19925;-73
2023/06/12 10:44:42;;;;;;;;;;;29.00;99.90;;;;;;5024519;28;19984;-73
2023/06/12 10:47:19;;;;;;;;;;;29.30;99.90;;;;;;5039416;28;19926;-73
2023/06/12 10:49:56;;;;;;;;;;;29.50;99.90;;;;;;5022234;28;19947;-73
2023/06/12 10:52:23;;;;;;;;;;;29.70;99.90;;;;;;5024375;28;20019;-73
2023/06/12 10:55:14;;;;;;;;;;;29.60;99.90;;;;;;5035485;28;19929;-72
2023/06/12 10:57:47;;;;;;;;;;;29.60;99.90;;;;;;5037310;28;19925;-73
2023/06/12 11:00:16;;;;;;;;;;;29.50;99.90;;;;;;5027565;28;19933;-72
2023/06/12 11:02:43;;;;;;;;;;;29.50;99.90;;;;;;5030994;28;19975;-73
2023/06/12 11:05:10;;;;;;;;;;;29.60;99.90;;;;;;5037945;28;19969;-73
2023/06/12 11:07:37;;;;;;;;;;;29.90;99.90;;;;;;5046561;28;19925;-73
2023/06/12 11:10:08;;;;;;;;;;;30.00;99.90;;;;;;5032739;28;19925;-73
2023/06/12 11:12:35;;;;;;;;;;;30.30;99.90;;;;;;5033099;28;19979;-73
2023/06/12 11:15:03;;;;;;;;;;;30.40;99.90;;;;;;5030658;28;19925;-73
2023/06/12 11:17:30;;;;;;;;;;;30.50;99.90;;;;;;5026334;28;19925;-73
2023/06/12 11:19:58;;;;;;;;;;;30.60;99.90;;;;;;5030227;28;19925;-72
2023/06/12 11:22:25;;;;;;;;;;;30.70;99.90;;;;;;5019468;28;19995;-73
2023/06/12 11:24:59;;;;;;;;;;;30.60;99.90;;;;;;5040436;28;19925;-73
2023/06/12 11:27:26;;;;;;;;;;;30.70;99.90;;;;;;5032140;28;19975;-73
2023/06/12 11:29:53;;;;;;;;;;;31.00;99.90;;;;;;5035287;28;19947;-73
2023/06/12 11:32:21;;;;;;;;;;;31.20;99.90;;;;;;5029454;28;19983;-73
2023/06/12 11:34:48;;;;;;;;;;;31.20;99.90;;;;;;5033961;28;20445;-73
2023/06/12 11:37:16;;;;;;;;;;;31.30;99.90;;;;;;5030853;28;19925;-73
2023/06/12 11:39:43;;;;;;;;;;;31.90;99.90;;;;;;5036369;28;19932;-73
2023/06/12 11:42:11;;;;;;;;;;;33.30;99.90;;;;;;5037283;28;19929;-73
2023/06/12 11:44:38;;;;;;;;;;;34.40;99.90;;;;;;5031658;28;19925;-71
2023/06/12 11:47:06;;;;;;;;;;;35.30;99.90;;;;;;5030394;28;19932;-71
2023/06/12 11:49:35;;;;;;;;;;;36.40;99.90;;;;;;5031343;28;20043;-71
2023/06/12 11:52:01;;;;;;;;;;;37.20;99.90;;;;;;5031399;28;19926;-73
2023/06/12 11:54:29;;;;;;;;;;;37.90;99.90;;;;;;5036862;28;19960;-73
2023/06/12 11:56:56;;;;;;;;;;;37.60;99.90;;;;;;5035029;28;19994;-73
2023/06/12 11:59:25;;;;;;;;;;;38.40;99.90;;;;;;5030887;28;20411;-73
2023/06/12 12:01:52;;;;;;;;;;;38.70;99.90;;;;;;5035153;28;19933;-73
2023/06/12 12:04:19;;;;;;;;;;;39.30;99.90;;;;;;5036436;28;20395;-73
2023/06/12 12:06:51;;;;;;;;;;;39.50;99.10;;;;;;5032166;28;19929;-73
2023/06/12 12:09:23;;;;;;;;;;;39.80;99.90;;;;;;5032955;28;19932;-73
2023/06/12 12:11:50;;;;;;;;;;;40.40;99.20;;;;;;5033200;28;20347;-73
2023/06/12 12:14:17;;;;;;;;;;;40.10;98.40;;;;;;5032852;28;19972;-73
2023/06/12 12:16:44;;;;;;;;;;;40.00;98.30;;;;;;5042667;28;19929;-73
2023/06/12 12:19:18;;;;;;;;;;;39.60;98.60;;;;;;5047041;28;19967;-73
2023/06/12 12:21:46;;;;;;;;;;;39.60;98.20;;;;;;5037440;28;19929;-73
2023/06/12 12:24:14;;;;;;;;;;;39.80;97.40;;;;;;5039519;28;20040;-73
2023/06/12 12:26:42;;;;;;;;;;;40.70;97.30;;;;;;5042702;28;19933;-73
2023/06/12 12:29:09;;;;;;;;;;;41.30;97.20;;;;;;5039989;28;19925;-73
2023/06/12 12:31:36;;;;;;;;;;;41.40;97.00;;;;;;5043229;28;19933;-73
2023/06/12 12:34:03;;;;;;;;;;;41.70;96.80;;;;;;5051776;28;19929;-73
2023/06/12 12:36:30;;;;;;;;;;;41.20;96.20;;;;;;5038309;28;20395;-73
2023/06/12 12:38:57;;;;;;;;;;;40.40;95.10;;;;;;5041078;28;20458;-73
2023/06/12 12:41:26;;;;;;;;;;;39.50;95.20;;;;;;5046823;28;19987;-73
2023/06/12 12:43:53;;;;;;;;;;;39.80;95.70;;;;;;5040252;28;19925;-73
2023/06/12 12:46:20;;;;;;;;;;;40.30;95.60;;;;;;5032382;28;19972;-73
2023/06/12 12:48:46;;;;;;;;;;;40.80;95.80;;;;;;5040646;28;19936;-73
2023/06/12 12:51:13;;;;;;;;;;;40.50;96.10;;;;;;5057975;28;19932;-73
2023/06/12 12:53:40;;;;;;;;;;;40.30;96.50;;;;;;5034971;28;19979;-74
2023/06/12 12:56:07;;;;;;;;;;;39.70;96.90;;;;;;5035823;28;20473;-73
2023/06/12 12:58:35;;;;;;;;;;;40.20;95.70;;;;;;5055951;28;19925;-73
2023/06/12 13:01:02;;;;;;;;;;;40.40;97.80;;;;;;5039415;28;19926;-73
2023/06/12 13:03:29;;;;;;;;;;;;;;;;;;5038224;28;19929;-74
2023/06/12 13:05:56;;;;;;;;;;;42.20;96.90;;;;;;5033999;28;19929;-74
2023/06/12 13:08:23;;;;;;;;;;;42.20;97.10;;;;;;5061896;28;19954;-73
2023/06/12 13:10:50;;;;;;;;;;;41.80;97.50;;;;;;5033723;28;19979;-74
2023/06/12 13:13:18;;;;;;;;;;;41.50;95.80;;;;;;5062727;28;19928;-74
2023/06/12 13:15:47;;;;;;;;;;;40.70;96.00;;;;;;5033975;28;20019;-74
2023/06/12 13:18:14;;;;;;;;;;;41.20;96.30;;;;;;5044194;28;20404;-73
2023/06/12 13:20:40;;;;;;;;;;;40.10;96.10;;;;;;5047817;28;19931;-73
2023/06/12 13:23:07;;;;;;;;;;;40.80;95.90;;;;;;5042959;28;19976;-74
2023/06/12 13:25:33;;;;;;;;;;;41.60;95.90;;;;;;5042685;28;19924;-73
2023/06/12 13:28:00;;;;;;;;;;;42.20;95.70;;;;;;5041504;28;19960;-74
2023/06/12 13:30:27;;;;;;;;;;;43.00;96.10;;;;;;5056200;28;20293;-74
2023/06/12 13:32:55;;;;;;;;;;;43.30;95.60;;;;;;5039576;28;19956;-74
2023/06/12 13:35:22;;;;;;;;;;;43.50;96.10;;;;;;5039851;28;19925;-74
2023/06/12 13:37:48;;;;;;;;;;;42.90;95.80;;;;;;5039856;28;19931;-74
2023/06/12 13:40:16;;;;;;;;;;;41.80;94.90;;;;;;5034704;28;20040;-74
2023/06/12 13:42:46;;;;;;;;;;;40.60;95.00;;;;;;5044226;28;22324;-74
2023/06/12 13:45:13;;;;;;;;;;;39.40;94.70;;;;;;5030844;28;19975;-74
2023/06/12 13:47:40;;;;;;;;;;;39.60;95.80;;;;;;5041751;28;19932;-74
2023/06/12 13:50:11;;;;;;;;;;;40.70;95.60;;;;;;5035050;28;19978;-74
2023/06/12 13:52:37;;;;;;;;;;;41.50;95.80;;;;;;5053523;28;20035;-73
2023/06/12 13:55:04;;;;;;;;;;;41.90;95.20;;;;;;5030454;28;19979;-74
2023/06/12 13:57:31;;;;;;;;;;;40.30;95.60;;;;;;5032264;28;19925;-73
2023/06/12 13:59:58;;;;;;;;;;;40.20;95.60;;;;;;5030381;28;19926;-73
2023/06/12 14:02:25;;;;;;;;;;;40.40;94.60;;;;;;5041563;28;19925;-73
2023/06/12 14:04:53;;;;;;;;;;;40.00;95.00;;;;;;5035638;28;19929;-72
2023/06/12 14:07:22;;;;;;;;;;;39.80;94.80;;;;;;5038526;28;19925;-73
2023/06/12 14:09:49;;;;;;;;;;;39.10;95.30;;;;;;5030292;28;19932;-73
2023/06/12 14:12:15;;;;;;;;;;;39.10;95.30;;;;;;5041077;28;19925;-73
2023/06/12 14:14:46;;;;;;;;;;;38.90;95.80;;;;;;5034156;28;19929;-73
2023/06/12 14:17:13;;;;;;;;;;;38.50;95.40;;;;;;5031783;28;19931;-73
2023/06/12 14:19:40;;;;;;;;;;;38.70;94.60;;;;;;5037395;28;19925;-73
2023/06/12 14:22:07;;;;;;;;;;;39.20;93.70;;;;;;5032700;28;19925;-73
2023/06/12 14:24:35;;;;;;;;;;;39.80;93.00;;;;;;5038430;28;19925;-73